sensor_id;sensor_type;location;lat;lon;timestamp;pressure;altitude;pressure_sealevel;temperature;humidity
56928;BME280;60850;52.502;13.426;2023-11-19T00:00:30;101174.63;;;4.01;100.00
56928;BME280;60850;52.502;13.426;2023-11-19T00:03:16;101176.31;;;3.88;100.00
56928;BME280;60850;52.502;13.426;2023-11-19T00:05:43;101166.59;;;3.82;100.00
56928;BME280;60850;52.502;13.426;2023-11-19T00:08:10;101149.00;;;3.81;100.00
56928;BME280;60850;52.502;13.426;2023-11-19T00:10:37;101135.88;;;3.94;100.00
56928;BME280;60850;52.502;13.426;2023-11-19T00:13:04;101126.16;;;3.86;100.00
56928;BME280;60850;52.502;13.426;2023-11-19T00:15:34;101109.47;;;3.88;100.00
56928;BME280;60850;52.502;13.426;2023-11-19T00:18:01;101118.28;;;3.90;100.00
56928;BME280;60850;52.502;13.426;2023-11-19T00:20:30;101117.31;;;3.78;100.00
56928;BME280;60850;52.502;13.426;2023-11-19T00:22:57;101106.78;;;3.78;100.00
56928;BME280;60850;52.502;13.426;2023-11-19T00:25:24;101110.34;;;3.86;100.00
56928;BME280;60850;52.502;13.426;2023-11-19T00:27:51;101093.69;;;3.92;100.00
56928;BME280;60850;52.502;13.426;2023-11-19T00:30:19;101109.56;;;3.98;100.00
56928;BME280;60850;52.502;13.426;2023-11-19T00:32:47;101097.19;;;3.94;100.00
56928;BME280;60850;52.502;13.426;2023-11-19T00:35:14;101089.19;;;3.80;100.00
56928;BME280;60850;52.502;13.426;2023-11-19T00:37:41;101086.59;;;3.82;100.00
56928;BME280;60850;52.502;13.426;2023-11-19T00:40:11;101081.38;;;3.90;100.00
56928;BME280;60850;52.502;13.426;2023-11-19T00:42:40;101069.97;;;4.00;100.00
56928;BME280;60850;52.502;13.426;2023-11-19T00:45:07;101062.06;;;4.00;100.00
56928;BME280;60850;52.502;13.426;2023-11-19T00:47:35;101053.28;;;4.01;100.00
56928;BME280;60850;52.502;13.426;2023-11-19T00:50:05;101038.38;;;4.03;100.00
56928;BME280;60850;52.502;13.426;2023-11-19T00:52:35;101033.06;;;4.00;100.00
56928;BME280;60850;52.502;13.426;2023-11-19T00:55:01;101030.44;;;4.04;100.00
56928;BME280;60850;52.502;13.426;2023-11-19T00:57:28;101025.13;;;4.00;100.00
56928;BME280;60850;52.502;13.426;2023-11-19T00:59:56;101019.03;;;4.05;100.00
56928;BME280;60850;52.502;13.426;2023-11-19T01:02:23;101015.50;;;4.06;100.00
56928;BME280;60850;52.502;13.426;2023-11-19T01:04:50;100994.41;;;4.05;100.00
56928;BME280;60850;52.502;13.426;2023-11-19T01:07:19;100990.00;;;4.02;100.00
56928;BME280;60850;52.502;13.426;2023-11-19T01:09:49;100996.16;;;4.06;100.00
56928;BME280;60850;52.502;13.426;2023-11-19T01:12:17;100982.97;;;4.06;100.00
56928;BME280;60850;52.502;13.426;2023-11-19T01:14:44;100979.44;;;4.08;100.00
56928;BME280;60850;52.502;13.426;2023-11-19T01:17:11;100954.81;;;4.03;100.00
56928;BME280;60850;52.502;13.426;2023-11-19T01:19:38;100938.13;;;4.06;100.00
56928;BME280;60850;52.502;13.426;2023-11-19T01:22:08;100931.97;;;4.04;100.00
56928;BME280;60850;52.502;13.426;2023-11-19T01:24:36;100928.41;;;4.00;100.00
56928;BME280;60850;52.502;13.426;2023-11-19T01:27:04;100929.34;;;4.10;100.00
56928;BME280;60850;52.502;13.426;2023-11-19T01:29:31;100922.31;;;4.12;100.00
56928;BME280;60850;52.502;13.426;2023-11-19T01:31:58;100932.88;;;4.18;100.00
56928;BME280;60850;52.502;13.426;2023-11-19T01:34:26;100924.09;;;4.16;100.00
56928;BME280;60850;52.502;13.426;2023-11-19T01:36:54;100917.03;;;4.12;100.00
56928;BME280;60850;52.502;13.426;2023-11-19T01:39:21;100924.06;;;4.10;100.00
56928;BME280;60850;52.502;13.426;2023-11-19T01:41:50;100910.88;;;4.14;100.00
56928;BME280;60850;52.502;13.426;2023-11-19T01:44:17;100891.53;;;4.14;100.00
56928;BME280;60850;52.502;13.426;2023-11-19T01:46:45;100883.63;;;4.12;100.00
56928;BME280;60850;52.502;13.426;2023-11-19T01:49:15;100873.97;;;4.16;100.00
56928;BME280;60850;52.502;13.426;2023-11-19T01:51:43;100859.00;;;4.20;100.00
56928;BME280;60850;52.502;13.426;2023-11-19T01:54:10;100861.66;;;4.26;100.00
56928;BME280;60850;52.502;13.426;2023-11-19T01:56:39;100843.16;;;4.20;100.00
56928;BME280;60850;52.502;13.426;2023-11-19T01:59:09;100844.03;;;4.19;100.00
56928;BME280;60850;52.502;13.426;2023-11-19T02:01:37;100838.78;;;4.25;100.00
56928;BME280;60850;52.502;13.426;2023-11-19T02:04:06;100829.09;;;4.16;100.00
56928;BME280;60850;52.502;13.426;2023-11-19T02:06:34;100837.88;;;4.29;100.00
56928;BME280;60850;52.502;13.426;2023-11-19T02:09:01;100822.91;;;4.16;100.00
56928;BME280;60850;52.502;13.426;2023-11-19T02:11:33;100810.59;;;4.22;100.00
56928;BME280;60850;52.502;13.426;2023-11-19T02:14:00;100792.16;;;4.13;100.00
56928;BME280;60850;52.502;13.426;2023-11-19T02:16:30;100772.78;;;4.08;100.00
56928;BME280;60850;52.502;13.426;2023-11-19T02:18:57;100751.72;;;4.09;100.00
56928;BME280;60850;52.502;13.426;2023-11-19T02:21:23;100734.97;;;4.15;100.00
56928;BME280;60850;52.502;13.426;2023-11-19T02:23:50;100745.53;;;4.15;100.00
56928;BME280;60850;52.502;13.426;2023-11-19T02:26:22;100742.03;;;4.10;100.00
56928;BME280;60850;52.502;13.426;2023-11-19T02:28:53;100746.44;;;4.11;100.00
56928;BME280;60850;52.502;13.426;2023-11-19T02:31:20;100742.91;;;4.18;100.00
56928;BME280;60850;52.502;13.426;2023-11-19T02:33:48;100728.81;;;4.19;100.00
56928;BME280;60850;52.502;13.426;2023-11-19T02:36:15;100731.47;;;4.16;100.00
56928;BME280;60850;52.502;13.426;2023-11-19T02:38:43;100731.47;;;4.19;100.00
56928;BME280;60850;52.502;13.426;2023-11-19T02:41:10;100718.28;;;4.25;100.00
56928;BME280;60850;52.502;13.426;2023-11-19T02:43:37;100701.53;;;4.35;100.00
56928;BME280;60850;52.502;13.426;2023-11-19T02:46:06;100705.94;;;4.27;100.00
56928;BME280;60850;52.502;13.426;2023-11-19T02:48:34;100701.56;;;4.23;100.00
56928;BME280;60850;52.502;13.426;2023-11-19T02:51:02;100698.88;;;4.35;100.00
56928;BME280;60850;52.502;13.426;2023-11-19T02:53:30;100700.66;;;4.32;100.00
56928;BME280;60850;52.502;13.426;2023-11-19T02:55:57;100680.41;;;4.35;100.00
56928;BME280;60850;52.502;13.426;2023-11-19T02:58:31;100670.72;;;4.44;100.00
56928;BME280;60850;52.502;13.426;2023-11-19T03:01:00;100658.44;;;4.39;100.00
56928;BME280;60850;52.502;13.426;2023-11-19T03:03:36;100648.72;;;4.41;100.00
56928;BME280;60850;52.502;13.426;2023-11-19T03:06:06;100648.75;;;4.45;100.00
56928;BME280;60850;52.502;13.426;2023-11-19T03:08:35;100624.09;;;4.44;100.00
56928;BME280;60850;52.502;13.426;2023-11-19T03:11:03;100639.91;;;4.47;100.00
56928;BME280;60850;52.502;13.426;2023-11-19T03:13:31;100648.75;;;4.45;100.00
56928;BME280;60850;52.502;13.426;2023-11-19T03:15:58;100648.72;;;4.48;100.00
56928;BME280;60850;52.502;13.426;2023-11-19T03:18:25;100649.59;;;4.47;100.00
56928;BME280;60850;52.502;13.426;2023-11-19T03:20:53;100649.59;;;4.44;100.00
56928;BME280;60850;52.502;13.426;2023-11-19T03:23:20;100647.84;;;4.43;100.00
56928;BME280;60850;52.502;13.426;2023-11-19T03:25:48;100653.13;;;4.41;100.00
56928;BME280;60850;52.502;13.426;2023-11-19T03:28:15;100653.13;;;4.43;100.00
56928;BME280;60850;52.502;13.426;2023-11-19T03:30:42;100661.03;;;4.47;100.00
56928;BME280;60850;52.502;13.426;2023-11-19T03:33:09;100663.69;;;4.39;100.00
56928;BME280;60850;52.502;13.426;2023-11-19T03:35:36;100643.47;;;4.38;100.00
56928;BME280;60850;52.502;13.426;2023-11-19T03:38:04;100632.03;;;4.35;100.00
56928;BME280;60850;52.502;13.426;2023-11-19T03:40:31;100637.34;;;4.30;100.00
56928;BME280;60850;52.502;13.426;2023-11-19T03:42:58;100617.13;;;4.22;100.00
56928;BME280;60850;52.502;13.426;2023-11-19T03:45:25;100594.28;;;4.08;100.00
56928;BME280;60850;52.502;13.426;2023-11-19T03:47:52;100591.66;;;4.01;100.00
56928;BME280;60850;52.502;13.426;2023-11-19T03:50:19;100590.78;;;3.94;100.00
56928;BME280;60850;52.502;13.426;2023-11-19T03:52:46;100589.94;;;3.89;100.00
56928;BME280;60850;52.502;13.426;2023-11-19T03:55:15;100586.44;;;3.84;100.00
56928;BME280;60850;52.502;13.426;2023-11-19T03:57:42;100578.50;;;3.87;100.00
56928;BME280;60850;52.502;13.426;2023-11-19T04:00:09;100575.88;;;3.78;100.00
56928;BME280;60850;52.502;13.426;2023-11-19T04:02:39;100565.34;;;3.76;100.00
56928;BME280;60850;52.502;13.426;2023-11-19T04:05:07;100540.75;;;3.70;100.00
56928;BME280;60850;52.502;13.426;2023-11-19T04:07:35;100524.94;;;3.68;100.00
56928;BME280;60850;52.502;13.426;2023-11-19T04:10:03;100527.59;;;3.68;100.00
56928;BME280;60850;52.502;13.426;2023-11-19T04:12:31;100516.16;;;3.57;100.00
56928;BME280;60850;52.502;13.426;2023-11-19T04:14:58;100514.41;;;3.59;100.00
56928;BME280;60850;52.502;13.426;2023-11-19T04:17:25;100506.50;;;3.61;100.00
56928;BME280;60850;52.502;13.426;2023-11-19T04:19:52;100503.00;;;3.62;100.00
56928;BME280;60850;52.502;13.426;2023-11-19T04:22:19;100501.22;;;3.62;100.00
56928;BME280;60850;52.502;13.426;2023-11-19T04:24:46;100490.69;;;3.61;100.00
56928;BME280;60850;52.502;13.426;2023-11-19T04:27:14;100491.56;;;3.67;100.00
56928;BME280;60850;52.502;13.426;2023-11-19T04:29:42;100491.53;;;3.66;100.00
56928;BME280;60850;52.502;13.426;2023-11-19T04:32:09;100488.06;;;3.67;100.00
56928;BME280;60850;52.502;13.426;2023-11-19T04:34:36;100489.78;;;3.72;100.00
56928;BME280;60850;52.502;13.426;2023-11-19T04:37:03;100483.66;;;3.67;100.00
56928;BME280;60850;52.502;13.426;2023-11-19T04:39:30;100486.28;;;3.70;100.00
56928;BME280;60850;52.502;13.426;2023-11-19T04:41:57;100476.59;;;3.77;100.00
56928;BME280;60850;52.502;13.426;2023-11-19T04:44:25;100480.13;;;3.74;100.00
56928;BME280;60850;52.502;13.426;2023-11-19T04:46:53;100492.41;;;3.77;100.00
56928;BME280;60850;52.502;13.426;2023-11-19T04:49:20;100479.22;;;3.72;100.00
56928;BME280;60850;52.502;13.426;2023-11-19T04:51:47;100481.88;;;3.75;100.00
56928;BME280;60850;52.502;13.426;2023-11-19T04:54:14;100483.59;;;3.79;100.00
56928;BME280;60850;52.502;13.426;2023-11-19T04:56:45;100469.56;;;3.70;100.00
56928;BME280;60850;52.502;13.426;2023-11-19T04:59:12;100465.19;;;3.67;100.00
56928;BME280;60850;52.502;13.426;2023-11-19T05:01:39;100455.50;;;3.66;100.00
56928;BME280;60850;52.502;13.426;2023-11-19T05:04:07;100447.59;;;3.69;100.00
56928;BME280;60850;52.502;13.426;2023-11-19T05:06:34;100442.34;;;3.74;100.00
56928;BME280;60850;52.502;13.426;2023-11-19T05:09:01;100427.41;;;3.67;100.00
56928;BME280;60850;52.502;13.426;2023-11-19T05:11:30;100425.66;;;3.67;100.00
56928;BME280;60850;52.502;13.426;2023-11-19T05:13:58;100431.78;;;3.66;100.00
56928;BME280;60850;52.502;13.426;2023-11-19T05:16:25;100417.72;;;3.72;100.00
56928;BME280;60850;52.502;13.426;2023-11-19T05:18:52;100396.66;;;3.64;100.00
56928;BME280;60850;52.502;13.426;2023-11-19T05:21:20;100394.91;;;3.63;100.00
56928;BME280;60850;52.502;13.426;2023-11-19T05:23:47;100379.94;;;3.65;100.00
56928;BME280;60850;52.502;13.426;2023-11-19T05:26:18;100384.34;;;3.68;100.00
56928;BME280;60850;52.502;13.426;2023-11-19T05:28:46;100382.59;;;3.64;100.00
56928;BME280;60850;52.502;13.426;2023-11-19T05:31:13;100388.75;;;3.67;100.00
56928;BME280;60850;52.502;13.426;2023-11-19T05:33:40;100379.09;;;3.68;100.00
56928;BME280;60850;52.502;13.426;2023-11-19T05:36:08;100378.19;;;3.70;100.00
56928;BME280;60850;52.502;13.426;2023-11-19T05:38:36;100374.66;;;3.71;100.00
56928;BME280;60850;52.502;13.426;2023-11-19T05:41:04;100374.69;;;3.65;100.00
56928;BME280;60850;52.502;13.426;2023-11-19T05:43:31;100379.06;;;3.66;100.00
56928;BME280;60850;52.502;13.426;2023-11-19T05:45:58;100358.88;;;3.68;100.00
56928;BME280;60850;52.502;13.426;2023-11-19T05:48:26;100354.47;;;3.70;100.00
56928;BME280;60850;52.502;13.426;2023-11-19T05:50:53;100339.50;;;3.71;100.00
56928;BME280;60850;52.502;13.426;2023-11-19T05:53:20;100335.97;;;3.73;100.00
56928;BME280;60850;52.502;13.426;2023-11-19T05:55:49;100322.78;;;3.73;100.00
56928;BME280;60850;52.502;13.426;2023-11-19T05:58:22;100326.34;;;3.74;100.00
56928;BME280;60850;52.502;13.426;2023-11-19T06:00:50;100321.88;;;3.79;100.00
56928;BME280;60850;52.502;13.426;2023-11-19T06:03:17;100313.09;;;3.78;100.00
56928;BME280;60850;52.502;13.426;2023-11-19T06:05:44;100313.97;;;3.82;100.00
56928;BME280;60850;52.502;13.426;2023-11-19T06:08:11;100316.59;;;3.80;100.00
56928;BME280;60850;52.502;13.426;2023-11-19T06:10:38;100315.72;;;3.83;100.00
56928;BME280;60850;52.502;13.426;2023-11-19T06:13:07;100315.75;;;3.81;100.00
56928;BME280;60850;52.502;13.426;2023-11-19T06:15:36;100310.47;;;3.81;100.00
56928;BME280;60850;52.502;13.426;2023-11-19T06:18:03;100303.41;;;3.83;100.00
56928;BME280;60850;52.502;13.426;2023-11-19T06:20:31;100303.41;;;3.88;100.00
56928;BME280;60850;52.502;13.426;2023-11-19T06:22:59;100291.97;;;3.84;100.00
56928;BME280;60850;52.502;13.426;2023-11-19T06:25:26;100280.56;;;3.82;100.00
56928;BME280;60850;52.502;13.426;2023-11-19T06:27:53;100277.00;;;3.86;100.00
56928;BME280;60850;52.502;13.426;2023-11-19T06:30:21;100270.00;;;3.89;100.00
56928;BME280;60850;52.502;13.426;2023-11-19T06:32:48;100280.53;;;3.90;100.00
56928;BME280;60850;52.502;13.426;2023-11-19T06:35:16;100275.22;;;3.93;100.00
56928;BME280;60850;52.502;13.426;2023-11-19T06:37:43;100270.81;;;3.95;100.00
56928;BME280;60850;52.502;13.426;2023-11-19T06:40:11;100269.06;;;3.93;100.00
56928;BME280;60850;52.502;13.426;2023-11-19T06:42:38;100263.78;;;3.96;100.00
56928;BME280;60850;52.502;13.426;2023-11-19T06:45:06;100247.94;;;3.94;100.00
56928;BME280;60850;52.502;13.426;2023-11-19T06:47:35;100254.97;;;3.97;100.00
56928;BME280;60850;52.502;13.426;2023-11-19T06:50:02;100259.38;;;3.98;100.00
56928;BME280;60850;52.502;13.426;2023-11-19T06:52:31;100261.97;;;4.04;100.00
56928;BME280;60850;52.502;13.426;2023-11-19T06:54:58;100246.16;;;4.02;100.00
56928;BME280;60850;52.502;13.426;2023-11-19T06:57:25;100257.53;;;4.09;100.00
56928;BME280;60850;52.502;13.426;2023-11-19T06:59:54;100246.97;;;4.09;100.00
56928;BME280;60850;52.502;13.426;2023-11-19T07:02:20;100252.25;;;4.09;100.00
56928;BME280;60850;52.502;13.426;2023-11-19T07:04:49;100259.25;;;4.13;100.00
56928;BME280;60850;52.502;13.426;2023-11-19T07:07:16;100253.97;;;4.16;100.00
56928;BME280;60850;52.502;13.426;2023-11-19T07:09:43;100248.66;;;4.14;100.00
56928;BME280;60850;52.502;13.426;2023-11-19T07:12:09;100252.19;;;4.18;100.00
56928;BME280;60850;52.502;13.426;2023-11-19T07:14:36;100257.41;;;4.24;100.00
56928;BME280;60850;52.502;13.426;2023-11-19T07:17:04;100254.75;;;4.26;100.00
56928;BME280;60850;52.502;13.426;2023-11-19T07:19:31;100272.31;;;4.27;100.00
56928;BME280;60850;52.502;13.426;2023-11-19T07:21:59;100267.06;;;4.25;100.00
56928;BME280;60850;52.502;13.426;2023-11-19T07:24:26;100271.44;;;4.26;100.00
56928;BME280;60850;52.502;13.426;2023-11-19T07:26:53;100265.28;;;4.30;100.00
56928;BME280;60850;52.502;13.426;2023-11-19T07:29:21;100258.19;;;4.34;100.00
56928;BME280;60850;52.502;13.426;2023-11-19T07:31:48;100256.41;;;4.37;100.00
56928;BME280;60850;52.502;13.426;2023-11-19T07:34:16;100243.13;;;4.44;100.00
56928;BME280;60850;52.502;13.426;2023-11-19T07:36:43;100241.38;;;4.43;100.00
56928;BME280;60850;52.502;13.426;2023-11-19T07:39:12;100241.31;;;4.50;100.00
56928;BME280;60850;52.502;13.426;2023-11-19T07:41:39;100245.75;;;4.48;100.00
56928;BME280;60850;52.502;13.426;2023-11-19T07:44:06;100254.53;;;4.52;100.00
56928;BME280;60850;52.502;13.426;2023-11-19T07:46:33;100268.56;;;4.54;100.00
56928;BME280;60850;52.502;13.426;2023-11-19T07:49:00;100240.41;;;4.54;100.00
56928;BME280;60850;52.502;13.426;2023-11-19T07:51:28;100252.69;;;4.57;100.00
56928;BME280;60850;52.502;13.426;2023-11-19T07:53:55;100246.50;;;4.61;100.00
56928;BME280;60850;52.502;13.426;2023-11-19T07:56:23;100242.91;;;4.68;100.00
56928;BME280;60850;52.502;13.426;2023-11-19T07:58:50;100242.91;;;4.68;100.00
56928;BME280;60850;52.502;13.426;2023-11-19T08:01:17;100238.38;;;4.78;100.00
56928;BME280;60850;52.502;13.426;2023-11-19T08:03:44;100245.44;;;4.77;100.00
56928;BME280;60850;52.502;13.426;2023-11-19T08:06:11;100243.66;;;4.81;100.00
56928;BME280;60850;52.502;13.426;2023-11-19T08:08:38;100240.06;;;4.85;100.00
56928;BME280;60850;52.502;13.426;2023-11-19T08:11:05;100238.22;;;4.91;100.00
56928;BME280;60850;52.502;13.426;2023-11-19T08:13:34;100231.97;;;4.99;100.00
56928;BME280;60850;52.502;13.426;2023-11-19T08:16:00;100239.03;;;4.98;100.00
56928;BME280;60850;52.502;13.426;2023-11-19T08:18:27;100236.34;;;5.03;100.00
56928;BME280;60850;52.502;13.426;2023-11-19T08:20:54;100237.19;;;5.08;100.00
56928;BME280;60850;52.502;13.426;2023-11-19T08:23:22;100226.44;;;5.20;100.00
56928;BME280;60850;52.502;13.426;2023-11-19T08:25:51;100219.25;;;5.31;100.00
56928;BME280;60850;52.502;13.426;2023-11-19T08:28:18;100220.19;;;5.26;100.00
56928;BME280;60850;52.502;13.426;2023-11-19T08:30:47;100225.34;;;5.36;100.00
56928;BME280;60850;52.502;13.426;2023-11-19T08:33:13;100217.31;;;5.42;100.00
56928;BME280;60850;52.502;13.426;2023-11-19T08:35:40;100210.22;;;5.46;100.00
56928;BME280;60850;52.502;13.426;2023-11-19T08:38:07;100188.13;;;5.51;100.00
56928;BME280;60850;52.502;13.426;2023-11-19T08:40:34;100198.63;;;5.56;100.00
56928;BME280;60850;52.502;13.426;2023-11-19T08:43:01;100202.13;;;5.58;100.00
56928;BME280;60850;52.502;13.426;2023-11-19T08:45:28;100204.72;;;5.61;100.00
56928;BME280;60850;52.502;13.426;2023-11-19T08:47:57;100201.91;;;5.72;100.00
56928;BME280;60850;52.502;13.426;2023-11-19T08:50:24;100206.31;;;5.73;100.00
56928;BME280;60850;52.502;13.426;2023-11-19T08:52:50;100195.56;;;5.85;100.00
56928;BME280;60850;52.502;13.426;2023-11-19T08:55:18;100194.13;;;6.18;100.00
56928;BME280;60850;52.502;13.426;2023-11-19T08:57:45;100202.09;;;6.17;100.00
56928;BME280;60850;52.502;13.426;2023-11-19T09:00:12;100196.81;;;6.17;100.00
56928;BME280;60850;52.502;13.426;2023-11-19T09:02:40;100219.63;;;6.24;100.00
56928;BME280;60850;52.502;13.426;2023-11-19T09:05:10;100205.59;;;6.19;100.00
56928;BME280;60850;52.502;13.426;2023-11-19T09:07:38;100196.78;;;6.18;100.00
56928;BME280;60850;52.502;13.426;2023-11-19T09:10:06;100198.28;;;6.33;100.00
56928;BME280;60850;52.502;13.426;2023-11-19T09:12:34;100200.00;;;6.34;100.00
56928;BME280;60850;52.502;13.426;2023-11-19T09:15:01;100207.88;;;6.39;100.00
56928;BME280;60850;52.502;13.426;2023-11-19T09:17:28;100208.72;;;6.42;100.00
56928;BME280;60850;52.502;13.426;2023-11-19T09:19:55;100213.84;;;6.51;100.00
56928;BME280;60850;52.502;13.426;2023-11-19T09:22:23;100210.00;;;6.68;100.00
56928;BME280;60850;52.502;13.426;2023-11-19T09:24:50;100203.56;;;6.81;100.00
56928;BME280;60850;52.502;13.426;2023-11-19T09:27:17;100205.25;;;6.85;100.00
56928;BME280;60850;52.502;13.426;2023-11-19T09:29:44;100207.44;;;7.08;100.00
56928;BME280;60850;52.502;13.426;2023-11-19T09:32:12;100192.09;;;7.22;100.00
56928;BME280;60850;52.502;13.426;2023-11-19T09:34:39;100199.81;;;7.33;100.00
56928;BME280;60850;52.502;13.426;2023-11-19T09:37:06;100205.84;;;7.39;100.00
56928;BME280;60850;52.502;13.426;2023-11-19T09:39:35;100208.28;;;7.50;100.00
56928;BME280;60850;52.502;13.426;2023-11-19T09:42:01;100195.28;;;7.77;100.00
56928;BME280;60850;52.502;13.426;2023-11-19T09:44:29;100175.91;;;7.73;100.00
56928;BME280;60850;52.502;13.426;2023-11-19T09:46:57;100198.09;;;7.70;100.00
56928;BME280;60850;52.502;13.426;2023-11-19T09:49:26;100198.50;;;7.91;100.00
56928;BME280;60850;52.502;13.426;2023-11-19T09:51:53;100190.44;;;7.94;100.00
56928;BME280;60850;52.502;13.426;2023-11-19T09:54:21;100180.50;;;8.02;100.00
56928;BME280;60850;52.502;13.426;2023-11-19T09:56:49;100178.88;;;8.32;100.00
56928;BME280;60850;52.502;13.426;2023-11-19T09:59:17;100171.66;;;8.37;100.00
56928;BME280;60850;52.502;13.426;2023-11-19T10:01:45;100174.19;;;8.42;100.00
56928;BME280;60850;52.502;13.426;2023-11-19T10:04:15;100169.72;;;8.44;100.00
56928;BME280;60850;52.502;13.426;2023-11-19T10:06:42;100174.19;;;8.42;100.00
56928;BME280;60850;52.502;13.426;2023-11-19T10:09:09;100181.09;;;8.49;100.00
56928;BME280;60850;52.502;13.426;2023-11-19T10:11:36;100180.16;;;8.50;100.00
56928;BME280;60850;52.502;13.426;2023-11-19T10:14:04;100180.28;;;8.45;100.00
56928;BME280;60850;52.502;13.426;2023-11-19T10:16:34;100175.88;;;8.44;100.00
56928;BME280;60850;52.502;13.426;2023-11-19T10:19:01;100173.88;;;8.54;100.00
56928;BME280;60850;52.502;13.426;2023-11-19T10:21:29;100168.41;;;8.59;100.00
56928;BME280;60850;52.502;13.426;2023-11-19T10:23:59;100172.75;;;8.63;100.00
56928;BME280;60850;52.502;13.426;2023-11-19T10:26:27;100179.63;;;8.70;100.00
56928;BME280;60850;52.502;13.426;2023-11-19T10:28:55;100182.16;;;8.74;100.00
56928;BME280;60850;52.502;13.426;2023-11-19T10:31:23;100165.25;;;8.77;100.00
56928;BME280;60850;52.502;13.426;2023-11-19T10:33:52;100163.06;;;8.91;100.00
56928;BME280;60850;52.502;13.426;2023-11-19T10:36:19;100149.97;;;9.15;100.00
56928;BME280;60850;52.502;13.426;2023-11-19T10:38:53;100155.22;;;9.18;100.00
56928;BME280;60850;52.502;13.426;2023-11-19T10:41:27;100150.47;;;9.27;100.00
56928;BME280;60850;52.502;13.426;2023-11-19T10:43:54;100148.81;;;9.51;100.00
56928;BME280;60850;52.502;13.426;2023-11-19T10:46:21;100155.72;;;9.58;100.00
56928;BME280;60850;52.502;13.426;2023-11-19T10:48:50;100145.53;;;9.71;100.00
56928;BME280;60850;52.502;13.426;2023-11-19T10:51:19;100148.66;;;9.84;100.00
56928;BME280;60850;52.502;13.426;2023-11-19T10:53:49;100137.56;;;9.98;100.00
56928;BME280;60850;52.502;13.426;2023-11-19T10:56:17;100143.66;;;10.01;100.00
56928;BME280;60850;52.502;13.426;2023-11-19T10:58:49;100138.69;;;10.17;100.00
56928;BME280;60850;52.502;13.426;2023-11-19T11:01:19;100133.19;;;10.23;100.00
56928;BME280;60850;52.502;13.426;2023-11-19T11:03:47;100128.38;;;10.33;100.00
56928;BME280;60850;52.502;13.426;2023-11-19T11:06:18;100144.81;;;10.19;100.00
56928;BME280;60850;52.502;13.426;2023-11-19T11:08:46;100141.69;;;10.06;100.00
56928;BME280;60850;52.502;13.426;2023-11-19T11:11:15;100141.16;;;9.97;100.00
56928;BME280;60850;52.502;13.426;2023-11-19T11:13:44;100129.78;;;9.91;100.00
56928;BME280;60850;52.502;13.426;2023-11-19T11:16:12;100130.56;;;9.95;100.00
56928;BME280;60850;52.502;13.426;2023-11-19T11:18:40;100130.63;;;9.92;100.00
56928;BME280;60850;52.502;13.426;2023-11-19T11:21:12;100130.56;;;9.95;100.00
56928;BME280;60850;52.502;13.426;2023-11-19T11:24:10;100126.16;;;9.94;100.00
56928;BME280;60850;52.502;13.426;2023-11-19T11:26:58;100124.97;;;10.03;100.00
56928;BME280;60850;52.502;13.426;2023-11-19T11:29:36;100124.25;;;9.98;100.00
56928;BME280;60850;52.502;13.426;2023-11-19T11:32:11;100129.56;;;9.98;100.00
56928;BME280;60850;52.502;13.426;2023-11-19T11:35:08;100125.97;;;9.99;100.00
56928;BME280;60850;52.502;13.426;2023-11-19T11:37:44;100132.09;;;10.02;100.00
56928;BME280;60850;52.502;13.426;2023-11-19T11:40:15;100131.56;;;10.17;100.00
56928;BME280;60850;52.502;13.426;2023-11-19T11:42:43;100126.00;;;10.25;100.00
56928;BME280;60850;52.502;13.426;2023-11-19T11:45:11;100127.66;;;10.28;100.00
56928;BME280;60850;52.502;13.426;2023-11-19T11:50:51;100128.72;;;10.49;100.00
56928;BME280;60850;52.502;13.426;2023-11-19T11:53:20;100122.00;;;10.62;100.00
56928;BME280;60850;52.502;13.426;2023-11-19T11:55:55;100121.91;;;10.65;100.00
56928;BME280;60850;52.502;13.426;2023-11-19T11:58:42;100112.69;;;10.73;100.00
56928;BME280;60850;52.502;13.426;2023-11-19T12:01:14;100118.44;;;10.86;100.00
56928;BME280;60850;52.502;13.426;2023-11-19T12:03:45;100117.28;;;10.93;100.00
56928;BME280;60850;52.502;13.426;2023-11-19T12:06:13;100118.03;;;10.97;100.00
56928;BME280;60850;52.502;13.426;2023-11-19T12:08:41;100114.63;;;10.93;100.00
56928;BME280;60850;52.502;13.426;2023-11-19T12:11:10;100116.47;;;10.91;100.00
56928;BME280;60850;52.502;13.426;2023-11-19T12:13:48;100118.09;;;10.95;100.00
56928;BME280;60850;52.502;13.426;2023-11-19T12:16:19;100116.34;;;10.94;100.00
56928;BME280;60850;52.502;13.426;2023-11-19T12:18:47;100119.72;;;10.99;100.00
56928;BME280;60850;52.502;13.426;2023-11-19T12:21:27;100118.91;;;10.97;100.00
56928;BME280;60850;52.502;13.426;2023-11-19T12:23:55;100118.78;;;11.00;100.00
56928;BME280;60850;52.502;13.426;2023-11-19T12:26:34;100118.72;;;11.02;100.00
56928;BME280;60850;52.502;13.426;2023-11-19T12:29:01;100115.25;;;11.00;100.00
56928;BME280;60850;52.502;13.426;2023-11-19T12:31:32;100119.81;;;10.96;100.00
56928;BME280;60850;52.502;13.426;2023-11-19T12:34:08;100115.38;;;10.97;100.00
56928;BME280;60850;52.502;13.426;2023-11-19T12:36:38;100112.75;;;10.95;100.00
56928;BME280;60850;52.502;13.426;2023-11-19T12:39:06;100106.84;;;10.87;100.00
56928;BME280;60850;52.502;13.426;2023-11-19T12:41:50;100112.34;;;10.83;100.00
56928;BME280;60850;52.502;13.426;2023-11-19T12:44:20;100103.13;;;10.68;100.00
56928;BME280;60850;52.502;13.426;2023-11-19T12:46:59;100106.56;;;10.71;100.00